sensor_id;sensor_type;location;lat;lon;timestamp;P1;durP1;ratioP1;P2;durP2;ratioP2
10005;SDS011;5042;42.626;23.382;2023-04-25T00:02:08;3.37;;;2.63;;
10005;SDS011;5042;42.626;23.382;2023-04-25T00:04:35;3.90;;;3.50;;
10005;SDS011;5042;42.626;23.382;2023-04-25T00:07:02;3.47;;;3.17;;
10005;SDS011;5042;42.626;23.382;2023-04-25T00:09:31;3.87;;;3.13;;
10005;SDS011;5042;42.626;23.382;2023-04-25T00:11:58;3.50;;;3.20;;
10005;SDS011;5042;42.626;23.382;2023-04-25T00:14:26;2.87;;;2.57;;
10005;SDS011;5042;42.626;23.382;2023-04-25T00:16:53;3.47;;;2.47;;
10005;SDS011;5042;42.626;23.382;2023-04-25T00:19:21;3.00;;;2.70;;
10005;SDS011;5042;42.626;23.382;2023-04-25T00:21:47;3.47;;;2.87;;
10005;SDS011;5042;42.626;23.382;2023-04-25T00:24:15;4.37;;;2.87;;
10005;SDS011;5042;42.626;23.382;2023-04-25T00:26:43;2.90;;;2.67;;
10005;SDS011;5042;42.626;23.382;2023-04-25T00:29:10;3.77;;;2.90;;
10005;SDS011;5042;42.626;23.382;2023-04-25T00:31:36;2.90;;;2.57;;
10005;SDS011;5042;42.626;23.382;2023-04-25T00:34:03;4.57;;;3.77;;
10005;SDS011;5042;42.626;23.382;2023-04-25T00:36:30;4.57;;;4.00;;
10005;SDS011;5042;42.626;23.382;2023-04-25T00:38:57;4.10;;;3.70;;
10005;SDS011;5042;42.626;23.382;2023-04-25T00:41:23;5.53;;;4.57;;
10005;SDS011;5042;42.626;23.382;2023-04-25T00:43:52;5.03;;;4.17;;
10005;SDS011;5042;42.626;23.382;2023-04-25T00:46:20;6.43;;;4.87;;
10005;SDS011;5042;42.626;23.382;2023-04-25T00:48:47;5.33;;;4.57;;
10005;SDS011;5042;42.626;23.382;2023-04-25T00:51:16;5.03;;;4.27;;
10005;SDS011;5042;42.626;23.382;2023-04-25T00:53:45;4.93;;;4.23;;
10005;SDS011;5042;42.626;23.382;2023-04-25T00:56:13;7.03;;;4.47;;
10005;SDS011;5042;42.626;23.382;2023-04-25T00:58:40;5.33;;;4.50;;
10005;SDS011;5042;42.626;23.382;2023-04-25T01:01:09;5.43;;;4.00;;
10005;SDS011;5042;42.626;23.382;2023-04-25T01:03:37;5.27;;;4.17;;
10005;SDS011;5042;42.626;23.382;2023-04-25T01:06:06;5.47;;;4.33;;
10005;SDS011;5042;42.626;23.382;2023-04-25T01:08:34;5.70;;;4.37;;
10005;SDS011;5042;42.626;23.382;2023-04-25T01:11:01;5.27;;;4.10;;
10005;SDS011;5042;42.626;23.382;2023-04-25T01:13:28;5.10;;;4.60;;
10005;SDS011;5042;42.626;23.382;2023-04-25T01:15:57;4.53;;;4.10;;
10005;SDS011;5042;42.626;23.382;2023-04-25T01:18:25;5.17;;;4.13;;
10005;SDS011;5042;42.626;23.382;2023-04-25T01:20:52;5.63;;;4.60;;
10005;SDS011;5042;42.626;23.382;2023-04-25T01:23:20;5.77;;;4.33;;
10005;SDS011;5042;42.626;23.382;2023-04-25T01:25:48;6.80;;;5.00;;
10005;SDS011;5042;42.626;23.382;2023-04-25T01:28:15;6.63;;;5.10;;
10005;SDS011;5042;42.626;23.382;2023-04-25T01:30:43;5.80;;;4.50;;
10005;SDS011;5042;42.626;23.382;2023-04-25T01:33:10;5.13;;;4.53;;
10005;SDS011;5042;42.626;23.382;2023-04-25T01:35:40;6.00;;;4.40;;
10005;SDS011;5042;42.626;23.382;2023-04-25T01:38:07;4.23;;;3.50;;
10005;SDS011;5042;42.626;23.382;2023-04-25T01:40:35;5.40;;;3.43;;
10005;SDS011;5042;42.626;23.382;2023-04-25T01:43:05;4.30;;;3.33;;
10005;SDS011;5042;42.626;23.382;2023-04-25T01:45:33;3.00;;;2.67;;
10005;SDS011;5042;42.626;23.382;2023-04-25T01:48:01;3.30;;;2.83;;
10005;SDS011;5042;42.626;23.382;2023-04-25T01:50:28;4.43;;;3.30;;
10005;SDS011;5042;42.626;23.382;2023-04-25T01:52:55;4.17;;;3.10;;
10005;SDS011;5042;42.626;23.382;2023-04-25T01:55:22;3.53;;;2.83;;
10005;SDS011;5042;42.626;23.382;2023-04-25T01:57:50;3.53;;;2.73;;
10005;SDS011;5042;42.626;23.382;2023-04-25T02:00:17;4.43;;;3.20;;
10005;SDS011;5042;42.626;23.382;2023-04-25T02:02:45;3.27;;;2.77;;
10005;SDS011;5042;42.626;23.382;2023-04-25T02:05:13;4.23;;;2.87;;
10005;SDS011;5042;42.626;23.382;2023-04-25T02:07:40;3.67;;;3.23;;
10005;SDS011;5042;42.626;23.382;2023-04-25T02:10:07;5.60;;;3.20;;
10005;SDS011;5042;42.626;23.382;2023-04-25T02:12:35;3.70;;;3.33;;
10005;SDS011;5042;42.626;23.382;2023-04-25T02:15:04;3.47;;;3.03;;
10005;SDS011;5042;42.626;23.382;2023-04-25T02:17:31;3.20;;;2.90;;
10005;SDS011;5042;42.626;23.382;2023-04-25T02:19:58;4.90;;;3.33;;
10005;SDS011;5042;42.626;23.382;2023-04-25T02:22:25;4.60;;;3.93;;
10005;SDS011;5042;42.626;23.382;2023-04-25T02:24:55;4.63;;;3.47;;
10005;SDS011;5042;42.626;23.382;2023-04-25T02:27:21;4.00;;;3.47;;
10005;SDS011;5042;42.626;23.382;2023-04-25T02:29:48;4.43;;;3.63;;
10005;SDS011;5042;42.626;23.382;2023-04-25T02:32:16;3.97;;;3.13;;
10005;SDS011;5042;42.626;23.382;2023-04-25T02:34:43;3.87;;;3.37;;
10005;SDS011;5042;42.626;23.382;2023-04-25T02:37:10;3.57;;;3.23;;
10005;SDS011;5042;42.626;23.382;2023-04-25T02:39:36;4.10;;;3.40;;
10005;SDS011;5042;42.626;23.382;2023-04-25T02:42:03;3.47;;;3.10;;
10005;SDS011;5042;42.626;23.382;2023-04-25T02:44:30;3.67;;;3.20;;
10005;SDS011;5042;42.626;23.382;2023-04-25T02:46:57;4.23;;;3.47;;
10005;SDS011;5042;42.626;23.382;2023-04-25T02:49:25;4.37;;;3.40;;
10005;SDS011;5042;42.626;23.382;2023-04-25T02:51:51;5.07;;;3.30;;
10005;SDS011;5042;42.626;23.382;2023-04-25T02:54:18;4.27;;;3.30;;
10005;SDS011;5042;42.626;23.382;2023-04-25T02:56:45;4.10;;;3.10;;
10005;SDS011;5042;42.626;23.382;2023-04-25T02:59:12;3.87;;;3.40;;
10005;SDS011;5042;42.626;23.382;2023-04-25T03:01:38;3.40;;;3.10;;
10005;SDS011;5042;42.626;23.382;2023-04-25T03:04:05;3.77;;;3.37;;
10005;SDS011;5042;42.626;23.382;2023-04-25T03:06:33;3.83;;;3.37;;
10005;SDS011;5042;42.626;23.382;2023-04-25T03:09:00;4.83;;;3.80;;
10005;SDS011;5042;42.626;23.382;2023-04-25T03:11:26;5.10;;;3.93;;
10005;SDS011;5042;42.626;23.382;2023-04-25T03:13:53;5.63;;;4.03;;
10005;SDS011;5042;42.626;23.382;2023-04-25T03:16:20;5.03;;;4.20;;
10005;SDS011;5042;42.626;23.382;2023-04-25T03:18:47;6.13;;;4.60;;
10005;SDS011;5042;42.626;23.382;2023-04-25T03:21:15;7.00;;;4.43;;
10005;SDS011;5042;42.626;23.382;2023-04-25T03:23:43;6.97;;;5.17;;
10005;SDS011;5042;42.626;23.382;2023-04-25T03:26:10;8.47;;;5.87;;
10005;SDS011;5042;42.626;23.382;2023-04-25T03:28:37;9.00;;;6.23;;
10005;SDS011;5042;42.626;23.382;2023-04-25T03:31:04;8.53;;;6.30;;
10005;SDS011;5042;42.626;23.382;2023-04-25T03:33:31;9.40;;;6.20;;
10005;SDS011;5042;42.626;23.382;2023-04-25T03:35:59;10.90;;;6.57;;
10005;SDS011;5042;42.626;23.382;2023-04-25T03:38:26;9.37;;;6.40;;
10005;SDS011;5042;42.626;23.382;2023-04-25T03:40:55;8.47;;;6.70;;
10005;SDS011;5042;42.626;23.382;2023-04-25T03:43:22;9.33;;;6.77;;
10005;SDS011;5042;42.626;23.382;2023-04-25T03:45:49;10.57;;;6.73;;
10005;SDS011;5042;42.626;23.382;2023-04-25T03:48:16;10.33;;;6.77;;
10005;SDS011;5042;42.626;23.382;2023-04-25T03:50:42;10.10;;;6.67;;
10005;SDS011;5042;42.626;23.382;2023-04-25T03:53:09;11.33;;;7.73;;
10005;SDS011;5042;42.626;23.382;2023-04-25T03:55:36;9.50;;;6.43;;
10005;SDS011;5042;42.626;23.382;2023-04-25T03:58:04;11.27;;;7.10;;
10005;SDS011;5042;42.626;23.382;2023-04-25T04:00:31;11.63;;;7.70;;
10005;SDS011;5042;42.626;23.382;2023-04-25T04:02:57;10.03;;;7.23;;
10005;SDS011;5042;42.626;23.382;2023-04-25T04:05:24;9.57;;;6.33;;
10005;SDS011;5042;42.626;23.382;2023-04-25T04:07:51;10.33;;;6.83;;
10005;SDS011;5042;42.626;23.382;2023-04-25T04:10:18;9.63;;;6.47;;
10005;SDS011;5042;42.626;23.382;2023-04-25T04:12:44;7.83;;;5.93;;
10005;SDS011;5042;42.626;23.382;2023-04-25T04:15:12;8.30;;;5.70;;
10005;SDS011;5042;42.626;23.382;2023-04-25T04:17:39;8.50;;;6.67;;
10005;SDS011;5042;42.626;23.382;2023-04-25T04:20:07;9.07;;;6.47;;
10005;SDS011;5042;42.626;23.382;2023-04-25T04:22:34;9.67;;;6.47;;
10005;SDS011;5042;42.626;23.382;2023-04-25T04:25:01;8.13;;;5.87;;
10005;SDS011;5042;42.626;23.382;2023-04-25T04:27:28;9.83;;;6.80;;
10005;SDS011;5042;42.626;23.382;2023-04-25T04:29:55;10.10;;;7.47;;
10005;SDS011;5042;42.626;23.382;2023-04-25T04:32:24;11.73;;;8.23;;
10005;SDS011;5042;42.626;23.382;2023-04-25T04:34:52;12.63;;;8.23;;
10005;SDS011;5042;42.626;23.382;2023-04-25T04:37:20;12.50;;;8.33;;
10005;SDS011;5042;42.626;23.382;2023-04-25T04:39:47;12.30;;;8.60;;
10005;SDS011;5042;42.626;23.382;2023-04-25T04:42:13;13.23;;;9.00;;
10005;SDS011;5042;42.626;23.382;2023-04-25T04:44:40;15.93;;;10.13;;
10005;SDS011;5042;42.626;23.382;2023-04-25T04:47:09;16.13;;;9.80;;
10005;SDS011;5042;42.626;23.382;2023-04-25T04:49:39;14.27;;;9.70;;
10005;SDS011;5042;42.626;23.382;2023-04-25T04:52:06;14.73;;;9.50;;
10005;SDS011;5042;42.626;23.382;2023-04-25T04:54:32;13.27;;;9.27;;
10005;SDS011;5042;42.626;23.382;2023-04-25T04:57:00;14.90;;;9.80;;
10005;SDS011;5042;42.626;23.382;2023-04-25T04:59:27;16.00;;;9.57;;
10005;SDS011;5042;42.626;23.382;2023-04-25T05:01:54;14.20;;;9.23;;
10005;SDS011;5042;42.626;23.382;2023-04-25T05:04:21;14.47;;;9.87;;
10005;SDS011;5042;42.626;23.382;2023-04-25T05:06:49;13.50;;;8.63;;
10005;SDS011;5042;42.626;23.382;2023-04-25T05:09:16;10.57;;;7.07;;
10005;SDS011;5042;42.626;23.382;2023-04-25T05:11:44;8.27;;;6.67;;
10005;SDS011;5042;42.626;23.382;2023-04-25T05:14:11;9.80;;;6.90;;
10005;SDS011;5042;42.626;23.382;2023-04-25T05:16:37;10.07;;;6.67;;
10005;SDS011;5042;42.626;23.382;2023-04-25T05:19:04;10.20;;;6.87;;
10005;SDS011;5042;42.626;23.382;2023-04-25T05:21:31;9.50;;;6.33;;
10005;SDS011;5042;42.626;23.382;2023-04-25T05:23:59;10.07;;;7.30;;
10005;SDS011;5042;42.626;23.382;2023-04-25T05:26:26;10.53;;;7.80;;
10005;SDS011;5042;42.626;23.382;2023-04-25T05:28:56;10.53;;;7.30;;
10005;SDS011;5042;42.626;23.382;2023-04-25T05:31:22;10.23;;;6.57;;
10005;SDS011;5042;42.626;23.382;2023-04-25T05:33:49;9.33;;;6.60;;
10005;SDS011;5042;42.626;23.382;2023-04-25T05:36:16;7.67;;;5.93;;
10005;SDS011;5042;42.626;23.382;2023-04-25T05:38:43;8.30;;;5.87;;
10005;SDS011;5042;42.626;23.382;2023-04-25T05:41:11;8.90;;;5.83;;
10005;SDS011;5042;42.626;23.382;2023-04-25T05:43:38;6.70;;;5.27;;
10005;SDS011;5042;42.626;23.382;2023-04-25T05:46:10;6.20;;;5.20;;
10005;SDS011;5042;42.626;23.382;2023-04-25T05:48:37;6.50;;;4.77;;
10005;SDS011;5042;42.626;23.382;2023-04-25T05:51:03;6.93;;;5.43;;
10005;SDS011;5042;42.626;23.382;2023-04-25T05:53:30;8.23;;;5.43;;
10005;SDS011;5042;42.626;23.382;2023-04-25T05:55:57;6.90;;;5.27;;
10005;SDS011;5042;42.626;23.382;2023-04-25T05:58:25;6.33;;;4.83;;
10005;SDS011;5042;42.626;23.382;2023-04-25T06:00:52;6.57;;;5.23;;
10005;SDS011;5042;42.626;23.382;2023-04-25T06:03:19;8.43;;;6.43;;
10005;SDS011;5042;42.626;23.382;2023-04-25T06:05:46;8.77;;;6.67;;
10005;SDS011;5042;42.626;23.382;2023-04-25T06:08:13;9.63;;;7.13;;
10005;SDS011;5042;42.626;23.382;2023-04-25T06:10:39;7.83;;;5.37;;
10005;SDS011;5042;42.626;23.382;2023-04-25T06:13:06;10.80;;;6.83;;
10005;SDS011;5042;42.626;23.382;2023-04-25T06:15:34;8.70;;;6.30;;
10005;SDS011;5042;42.626;23.382;2023-04-25T06:18:01;7.63;;;5.70;;
10005;SDS011;5042;42.626;23.382;2023-04-25T06:20:28;9.53;;;5.90;;
10005;SDS011;5042;42.626;23.382;2023-04-25T06:22:55;10.10;;;6.93;;
10005;SDS011;5042;42.626;23.382;2023-04-25T06:25:22;8.63;;;6.80;;
10005;SDS011;5042;42.626;23.382;2023-04-25T06:27:49;8.67;;;7.33;;
10005;SDS011;5042;42.626;23.382;2023-04-25T06:30:16;8.50;;;6.50;;
10005;SDS011;5042;42.626;23.382;2023-04-25T06:32:44;7.60;;;6.27;;
10005;SDS011;5042;42.626;23.382;2023-04-25T06:35:11;8.67;;;6.50;;
10005;SDS011;5042;42.626;23.382;2023-04-25T06:37:40;5.93;;;5.33;;
10005;SDS011;5042;42.626;23.382;2023-04-25T06:40:07;7.50;;;5.93;;
10005;SDS011;5042;42.626;23.382;2023-04-25T06:42:35;7.57;;;5.80;;
10005;SDS011;5042;42.626;23.382;2023-04-25T06:45:01;9.80;;;5.67;;
10005;SDS011;5042;42.626;23.382;2023-04-25T06:47:28;8.97;;;5.97;;
10005;SDS011;5042;42.626;23.382;2023-04-25T06:49:57;6.87;;;5.60;;
10005;SDS011;5042;42.626;23.382;2023-04-25T06:52:24;7.20;;;5.27;;
10005;SDS011;5042;42.626;23.382;2023-04-25T06:54:50;8.03;;;5.27;;
10005;SDS011;5042;42.626;23.382;2023-04-25T06:57:17;7.17;;;4.67;;
10005;SDS011;5042;42.626;23.382;2023-04-25T06:59:44;5.50;;;4.37;;
10005;SDS011;5042;42.626;23.382;2023-04-25T07:02:11;4.60;;;3.97;;
10005;SDS011;5042;42.626;23.382;2023-04-25T07:04:37;6.13;;;4.63;;
10005;SDS011;5042;42.626;23.382;2023-04-25T07:07:06;7.13;;;4.70;;
10005;SDS011;5042;42.626;23.382;2023-04-25T07:09:32;6.00;;;4.93;;
10005;SDS011;5042;42.626;23.382;2023-04-25T07:11:59;6.80;;;4.90;;
10005;SDS011;5042;42.626;23.382;2023-04-25T07:14:27;7.43;;;5.33;;
10005;SDS011;5042;42.626;23.382;2023-04-25T07:16:54;6.50;;;4.70;;
10005;SDS011;5042;42.626;23.382;2023-04-25T07:19:22;5.70;;;4.67;;
10005;SDS011;5042;42.626;23.382;2023-04-25T07:21:51;5.47;;;4.63;;
10005;SDS011;5042;42.626;23.382;2023-04-25T07:24:19;10.77;;;5.37;;
10005;SDS011;5042;42.626;23.382;2023-04-25T07:26:46;5.83;;;5.00;;
10005;SDS011;5042;42.626;23.382;2023-04-25T07:29:13;5.43;;;4.90;;
10005;SDS011;5042;42.626;23.382;2023-04-25T07:31:39;6.97;;;5.30;;
10005;SDS011;5042;42.626;23.382;2023-04-25T07:34:06;6.40;;;4.63;;
10005;SDS011;5042;42.626;23.382;2023-04-25T07:36:33;6.17;;;4.60;;
10005;SDS011;5042;42.626;23.382;2023-04-25T07:39:00;5.70;;;4.80;;
10005;SDS011;5042;42.626;23.382;2023-04-25T07:41:29;7.57;;;4.60;;
10005;SDS011;5042;42.626;23.382;2023-04-25T07:43:55;6.30;;;4.80;;
10005;SDS011;5042;42.626;23.382;2023-04-25T07:46:22;6.27;;;4.83;;
10005;SDS011;5042;42.626;23.382;2023-04-25T07:48:49;4.93;;;4.30;;
10005;SDS011;5042;42.626;23.382;2023-04-25T07:51:15;5.30;;;4.23;;
10005;SDS011;5042;42.626;23.382;2023-04-25T07:53:44;6.33;;;4.80;;
10005;SDS011;5042;42.626;23.382;2023-04-25T07:56:11;5.77;;;4.60;;
10005;SDS011;5042;42.626;23.382;2023-04-25T07:58:39;4.27;;;3.87;;
10005;SDS011;5042;42.626;23.382;2023-04-25T08:01:06;6.43;;;4.80;;
10005;SDS011;5042;42.626;23.382;2023-04-25T08:03:33;4.67;;;4.13;;
10005;SDS011;5042;42.626;23.382;2023-04-25T08:05:59;4.30;;;3.70;;
10005;SDS011;5042;42.626;23.382;2023-04-25T08:08:26;4.90;;;3.90;;
10005;SDS011;5042;42.626;23.382;2023-04-25T08:10:53;4.37;;;3.73;;
10005;SDS011;5042;42.626;23.382;2023-04-25T08:13:19;5.43;;;4.10;;
10005;SDS011;5042;42.626;23.382;2023-04-25T08:15:47;4.28;;;3.63;;
10005;SDS011;5042;42.626;23.382;2023-04-25T08:18:14;4.72;;;4.15;;
10005;SDS011;5042;42.626;23.382;2023-04-25T08:20:41;5.50;;;3.63;;
10005;SDS011;5042;42.626;23.382;2023-04-25T08:23:08;4.75;;;4.20;;
10005;SDS011;5042;42.626;23.382;2023-04-25T08:25:35;4.10;;;3.70;;
10005;SDS011;5042;42.626;23.382;2023-04-25T08:28:02;3.35;;;3.05;;
10005;SDS011;5042;42.626;23.382;2023-04-25T08:30:29;5.75;;;3.88;;
10005;SDS011;5042;42.626;23.382;2023-04-25T08:32:57;4.13;;;3.60;;
10005;SDS011;5042;42.626;23.382;2023-04-25T08:35:24;4.22;;;3.55;;
10005;SDS011;5042;42.626;23.382;2023-04-25T08:37:51;5.15;;;3.78;;
10005;SDS011;5042;42.626;23.382;2023-04-25T08:40:18;9.23;;;6.90;;
10005;SDS011;5042;42.626;23.382;2023-04-25T08:42:51;3.38;;;3.08;;
10005;SDS011;5042;42.626;23.382;2023-04-25T08:45:20;4.18;;;3.50;;
10005;SDS011;5042;42.626;23.382;2023-04-25T08:47:47;2.85;;;2.65;;
10005;SDS011;5042;42.626;23.382;2023-04-25T08:50:19;6.55;;;3.20;;
10005;SDS011;5042;42.626;23.382;2023-04-25T08:52:47;3.17;;;2.85;;
10005;SDS011;5042;42.626;23.382;2023-04-25T08:55:17;3.58;;;2.70;;
10005;SDS011;5042;42.626;23.382;2023-04-25T08:57:45;2.95;;;2.25;;
10005;SDS011;5042;42.626;23.382;2023-04-25T09:00:12;5.00;;;4.10;;
10005;SDS011;5042;42.626;23.382;2023-04-25T09:02:40;2.92;;;2.55;;
10005;SDS011;5042;42.626;23.382;2023-04-25T09:05:09;3.20;;;3.00;;
10005;SDS011;5042;42.626;23.382;2023-04-25T09:07:37;3.80;;;2.70;;
10005;SDS011;5042;42.626;23.382;2023-04-25T09:10:04;3.55;;;2.50;;
10005;SDS011;5042;42.626;23.382;2023-04-25T09:12:31;3.88;;;2.65;;
10005;SDS011;5042;42.626;23.382;2023-04-25T09:15:05;3.25;;;2.85;;
10005;SDS011;5042;42.626;23.382;2023-04-25T09:17:33;3.72;;;3.20;;
10005;SDS011;5042;42.626;23.382;2023-04-25T09:20:07;4.57;;;3.50;;
10005;SDS011;5042;42.626;23.382;2023-04-25T09:22:35;4.57;;;3.67;;
10005;SDS011;5042;42.626;23.382;2023-04-25T09:25:04;4.30;;;3.20;;
10005;SDS011;5042;42.626;23.382;2023-04-25T09:27:34;5.65;;;3.90;;
10005;SDS011;5042;42.626;23.382;2023-04-25T09:30:01;4.00;;;3.60;;
10005;SDS011;5042;42.626;23.382;2023-04-25T09:32:29;3.38;;;3.08;;
10005;SDS011;5042;42.626;23.382;2023-04-25T09:34:56;3.60;;;3.30;;
10005;SDS011;5042;42.626;23.382;2023-04-25T09:37:23;3.47;;;3.17;;
10005;SDS011;5042;42.626;23.382;2023-04-25T09:39:52;3.90;;;3.10;;
10005;SDS011;5042;42.626;23.382;2023-04-25T09:42:23;3.47;;;3.17;;
10005;SDS011;5042;42.626;23.382;2023-04-25T09:44:52;3.90;;;3.50;;
10005;SDS011;5042;42.626;23.382;2023-04-25T09:47:20;4.00;;;3.55;;
10005;SDS011;5042;42.626;23.382;2023-04-25T09:49:49;4.25;;;3.70;;
10005;SDS011;5042;42.626;23.382;2023-04-25T09:52:17;3.50;;;3.20;;
10005;SDS011;5042;42.626;23.382;2023-04-25T09:54:46;3.88;;;3.40;;
10005;SDS011;5042;42.626;23.382;2023-04-25T09:57:14;4.63;;;3.67;;
10005;SDS011;5042;42.626;23.382;2023-04-25T09:59:44;3.95;;;3.58;;
10005;SDS011;5042;42.626;23.382;2023-04-25T10:02:12;3.30;;;3.03;;
10005;SDS011;5042;42.626;23.382;2023-04-25T10:04:41;3.83;;;3.45;;
10005;SDS011;5042;42.626;23.382;2023-04-25T10:07:08;4.03;;;3.40;;
10005;SDS011;5042;42.626;23.382;2023-04-25T10:09:36;4.50;;;3.78;;
10005;SDS011;5042;42.626;23.382;2023-04-25T10:12:04;4.18;;;3.50;;
10005;SDS011;5042;42.626;23.382;2023-04-25T10:14:32;4.65;;;3.35;;
10005;SDS011;5042;42.626;23.382;2023-04-25T10:17:00;4.30;;;3.38;;
10005;SDS011;5042;42.626;23.382;2023-04-25T10:19:28;4.88;;;3.70;;
10005;SDS011;5042;42.626;23.382;2023-04-25T10:21:56;5.50;;;4.00;;
10005;SDS011;5042;42.626;23.382;2023-04-25T10:24:30;4.63;;;4.22;;
10005;SDS011;5042;42.626;23.382;2023-04-25T10:26:57;5.82;;;3.72;;
10005;SDS011;5042;42.626;23.382;2023-04-25T10:29:24;1.83;;;1.73;;
10005;SDS011;5042;42.626;23.382;2023-04-25T10:31:52;1.30;;;1.20;;
10005;SDS011;5042;42.626;23.382;2023-04-25T10:34:23;0.80;;;0.80;;
10005;SDS011;5042;42.626;23.382;2023-04-25T10:36:51;1.15;;;0.77;;
10005;SDS011;5042;42.626;23.382;2023-04-25T10:39:22;1.25;;;1.10;;
10005;SDS011;5042;42.626;23.382;2023-04-25T10:41:53;1.13;;;1.10;;
10005;SDS011;5042;42.626;23.382;2023-04-25T10:44:22;0.88;;;0.88;;
10005;SDS011;5042;42.626;23.382;2023-04-25T10:46:49;0.68;;;0.68;;
10005;SDS011;5042;42.626;23.382;2023-04-25T10:52:12;1.77;;;1.10;;
10005;SDS011;5042;42.626;23.382;2023-04-25T10:54:41;1.35;;;1.23;;
10005;SDS011;5042;42.626;23.382;2023-04-25T11:00:00;2.63;;;2.40;;
10005;SDS011;5042;42.626;23.382;2023-04-25T11:02:31;2.97;;;2.55;;
10005;SDS011;5042;42.626;23.382;2023-04-25T11:05:00;2.13;;;2.03;;
10005;SDS011;5042;42.626;23.382;2023-04-25T11:07:30;2.55;;;2.35;;
10005;SDS011;5042;42.626;23.382;2023-04-25T11:10:01;2.20;;;2.10;;
10005;SDS011;5042;42.626;23.382;2023-04-25T11:12:29;2.58;;;2.38;;
10005;SDS011;5042;42.626;23.382;2023-04-25T11:14:59;1.58;;;1.00;;
10005;SDS011;5042;42.626;23.382;2023-04-25T11:17:27;0.90;;;0.90;;
10005;SDS011;5042;42.626;23.382;2023-04-25T11:19:54;1.13;;;1.02;;
10005;SDS011;5042;42.626;23.382;2023-04-25T11:22:23;0.60;;;0.60;;
10005;SDS011;5042;42.626;23.382;2023-04-25T11:24:50;0.50;;;0.50;;
10005;SDS011;5042;42.626;23.382;2023-04-25T11:27:17;0.88;;;0.88;;
10005;SDS011;5042;42.626;23.382;2023-04-25T11:29:44;0.80;;;0.80;;
10005;SDS011;5042;42.626;23.382;2023-04-25T11:32:13;0.90;;;0.90;;
10005;SDS011;5042;42.626;23.382;2023-04-25T11:34:42;0.90;;;0.90;;
10005;SDS011;5042;42.626;23.382;2023-04-25T11:37:09;3.83;;;2.28;;
10005;SDS011;5042;42.626;23.382;2023-04-25T11:39:39;3.17;;;2.00;;
10005;SDS011;5042;42.626;23.382;2023-04-25T11:42:10;2.03;;;1.92;;
10005;SDS011;5042;42.626;23.382;2023-04-25T11:44:37;2.40;;;1.70;;
10005;SDS011;5042;42.626;23.382;2023-04-25T11:47:05;2.03;;;1.80;;
10005;SDS011;5042;42.626;23.382;2023-04-25T11:49:32;2.63;;;2.07;;
10005;SDS011;5042;42.626;23.382;2023-04-25T11:52:00;2.13;;;1.70;;
10005;SDS011;5042;42.626;23.382;2023-04-25T11:54:27;2.77;;;2.07;;
10005;SDS011;5042;42.626;23.382;2023-04-25T11:56:55;4.53;;;2.65;;
10005;SDS011;5042;42.626;23.382;2023-04-25T11:59:23;4.40;;;2.10;;
10005;SDS011;5042;42.626;23.382;2023-04-25T12:01:51;1.33;;;1.23;;
10005;SDS011;5042;42.626;23.382;2023-04-25T12:04:18;1.20;;;1.10;;
10005;SDS011;5042;42.626;23.382;2023-04-25T12:06:47;0.90;;;0.90;;
10005;SDS011;5042;42.626;23.382;2023-04-25T12:09:15;0.83;;;0.73;;
10005;SDS011;5042;42.626;23.382;2023-04-25T12:11:44;1.33;;;0.80;;
10005;SDS011;5042;42.626;23.382;2023-04-25T12:14:19;1.07;;;1.03;;
10005;SDS011;5042;42.626;23.382;2023-04-25T12:16:48;1.20;;;1.10;;
10005;SDS011;5042;42.626;23.382;2023-04-25T12:19:16;2.83;;;1.00;;
10005;SDS011;5042;42.626;23.382;2023-04-25T12:21:44;1.50;;;1.40;;
10005;SDS011;5042;42.626;23.382;2023-04-25T12:24:11;2.73;;;0.90;;
10005;SDS011;5042;42.626;23.382;2023-04-25T12:26:46;1.33;;;1.00;;
10005;SDS011;5042;42.626;23.382;2023-04-25T12:29:16;1.33;;;1.10;;
10005;SDS011;5042;42.626;23.382;2023-04-25T12:31:44;0.90;;;0.90;;
10005;SDS011;5042;42.626;23.382;2023-04-25T12:34:11;1.10;;;1.10;;
10005;SDS011;5042;42.626;23.382;2023-04-25T12:36:38;0.93;;;0.93;;
10005;SDS011;5042;42.626;23.382;2023-04-25T12:39:05;2.47;;;0.90;;
10005;SDS011;5042;42.626;23.382;2023-04-25T12:41:33;0.80;;;0.77;;
10005;SDS011;5042;42.626;23.382;2023-04-25T12:44:00;0.73;;;0.73;;
10005;SDS011;5042;42.626;23.382;2023-04-25T12:46:28;1.13;;;1.07;;
10005;SDS011;5042;42.626;23.382;2023-04-25T12:48:54;1.07;;;0.90;;
10005;SDS011;5042;42.626;23.382;2023-04-25T12:51:22;1.15;;;0.98;;
10005;SDS011;5042;42.626;23.382;2023-04-25T12:53:50;0.70;;;0.70;;
10005;SDS011;5042;42.626;23.382;2023-04-25T12:56:17;0.97;;;0.90;;
10005;SDS011;5042;42.626;23.382;2023-04-25T12:58:44;1.17;;;1.00;;
10005;SDS011;5042;42.626;23.382;2023-04-25T13:01:13;0.80;;;0.80;;
10005;SDS011;5042;42.626;23.382;2023-04-25T13:03:41;0.70;;;0.70;;
10005;SDS011;5042;42.626;23.382;2023-04-25T13:06:08;0.80;;;0.80;;
10005;SDS011;5042;42.626;23.382;2023-04-25T13:08:35;0.83;;;0.60;;
10005;SDS011;5042;42.626;23.382;2023-04-25T13:11:03;1.07;;;0.70;;
10005;SDS011;5042;42.626;23.382;2023-04-25T13:13:30;0.80;;;0.80;;
10005;SDS011;5042;42.626;23.382;2023-04-25T13:15:59;0.67;;;0.67;;
10005;SDS011;5042;42.626;23.382;2023-04-25T13:18:27;0.50;;;0.50;;
10005;SDS011;5042;42.626;23.382;2023-04-25T13:20:55;0.80;;;0.80;;
10005;SDS011;5042;42.626;23.382;2023-04-25T13:23:22;0.80;;;0.80;;
10005;SDS011;5042;42.626;23.382;2023-04-25T13:25:49;0.67;;;0.60;;
10005;SDS011;5042;42.626;23.382;2023-04-25T13:28:15;3.23;;;0.87;;
10005;SDS011;5042;42.626;23.382;2023-04-25T13:30:42;1.10;;;1.10;;
10005;SDS011;5042;42.626;23.382;2023-04-25T13:33:09;0.83;;;0.83;;
10005;SDS011;5042;42.626;23.382;2023-04-25T13:35:37;0.90;;;0.90;;
10005;SDS011;5042;42.626;23.382;2023-04-25T13:38:05;1.03;;;1.03;;
10005;SDS011;5042;42.626;23.382;2023-04-25T13:40:32;0.97;;;0.90;;
10005;SDS011;5042;42.626;23.382;2023-04-25T13:42:59;1.50;;;1.40;;
10005;SDS011;5042;42.626;23.382;2023-04-25T13:45:25;1.23;;;1.13;;
10005;SDS011;5042;42.626;23.382;2023-04-25T13:47:52;1.43;;;1.33;;
10005;SDS011;5042;42.626;23.382;2023-04-25T13:50:19;0.97;;;0.97;;
10005;SDS011;5042;42.626;23.382;2023-04-25T13:52:46;1.23;;;1.23;;
10005;SDS011;5042;42.626;23.382;2023-04-25T13:55:14;1.20;;;1.20;;
10005;SDS011;5042;42.626;23.382;2023-04-25T13:57:41;0.90;;;0.90;;
10005;SDS011;5042;42.626;23.382;2023-04-25T14:00:08;1.50;;;1.40;;
10005;SDS011;5042;42.626;23.382;2023-04-25T14:02:36;1.60;;;1.50;;
10005;SDS011;5042;42.626;23.382;2023-04-25T14:05:03;1.40;;;1.30;;
10005;SDS011;5042;42.626;23.382;2023-04-25T14:07:30;0.93;;;0.93;;
10005;SDS011;5042;42.626;23.382;2023-04-25T14:09:57;1.53;;;1.30;;
10005;SDS011;5042;42.626;23.382;2023-04-25T14:12:25;1.53;;;1.43;;
10005;SDS011;5042;42.626;23.382;2023-04-25T14:14:52;1.20;;;1.10;;
10005;SDS011;5042;42.626;23.382;2023-04-25T14:17:19;1.43;;;1.33;;
10005;SDS011;5042;42.626;23.382;2023-04-25T14:19:46;1.40;;;1.30;;
10005;SDS011;5042;42.626;23.382;2023-04-25T14:22:13;1.60;;;1.50;;
10005;SDS011;5042;42.626;23.382;2023-04-25T14:24:40;1.33;;;1.23;;
10005;SDS011;5042;42.626;23.382;2023-04-25T14:27:07;1.03;;;1.00;;
10005;SDS011;5042;42.626;23.382;2023-04-25T14:29:35;1.90;;;1.20;;
10005;SDS011;5042;42.626;23.382;2023-04-25T14:32:02;1.77;;;1.67;;
10005;SDS011;5042;42.626;23.382;2023-04-25T14:34:30;1.60;;;1.50;;
10005;SDS011;5042;42.626;23.382;2023-04-25T14:36:57;1.80;;;1.30;;
10005;SDS011;5042;42.626;23.382;2023-04-25T14:39:23;1.00;;;1.00;;
10005;SDS011;5042;42.626;23.382;2023-04-25T14:41:50;1.40;;;1.30;;
10005;SDS011;5042;42.626;23.382;2023-04-25T14:44:17;1.20;;;1.10;;
10005;SDS011;5042;42.626;23.382;2023-04-25T14:46:45;1.30;;;1.00;;
10005;SDS011;5042;42.626;23.382;2023-04-25T14:49:12;1.50;;;1.33;;
10005;SDS011;5042;42.626;23.382;2023-04-25T14:51:39;1.37;;;1.30;;
10005;SDS011;5042;42.626;23.382;2023-04-25T14:54:06;1.63;;;1.47;;